Aeroporto :
LOGIN :

Iscrizione | Disclaimer

   EN    FR    IT 

 










Sommario :    VFR   VFR Marginale   IFR   IFR Intensivo   IFR Molto Intensivo
Visibilità : 
Base nubi : 
>= 8 km
>= 3000ft
5 / 8 km
1000 / 3000 ft
1500m / 5 km
500 / 1000 ft
800 / 1500m
200 / 500 ft
< 800m
< 200 ft
Simboli :   Temporali  Nebbia  Neve Forte  Precipitazioni Forti  Vento > 20 kt
SIGMETs :   Varie  Temporali  Ghiacco  Turbolenza  Onda orograficha  Ceneri Vulcaniche






- Altitudine del aeroporto : 56 ft
- Codice IATA : ILY


EGPI - Islay

ULTIMO METAR :
  • 200450Z AUTO 13021KT 100V160 7000 -RA OVC010/// 09/08 Q1003

METARs OBSOLETI :
  • 200420Z AUTO 13021G32KT 100V160 7000 -RA BKN008/// 09/08 Q1003
  • 200350Z AUTO 13020KT 100V160 4300 BR BKN008/// SCT014/// BKN021/// 09/08 Q1004 RERA
  • 200320Z AUTO 13020KT 100V160 3000 BR OVC008/// 09/08 Q1004
  • 200250Z AUTO 13021KT 090V170 9999 BKN009/// 09/08 Q1004 RERA
  • 200220Z AUTO 13020KT 100V160 9999 BKN008/// 09/09 Q1004 RERA
  • 200150Z AUTO 13019KT 100V160 6000 RADZ BKN008/// BKN015/// 09/08 Q1005

TAF AMD TAF EGPI
Valido dal 20 a 04 ore il 20 a 12 ore UTC


200443Z 2004/2012 14017KT 9999 SCT018
TEMPO 2004/2012 14020G30KT 6000 RA BKN009
PROB40
TEMPO 2004/2012 4000 SHRA



MetMap, La meteo Aeronautica in un colpo d'occhio ! - Copyright ORBIFLY Dicembre 2007 - Disclaimer

ORBIFLY MET'MAP TEAM :

Programmazione e sviluppo : Alexandra Zaïnal
Concezione e sviluppo : Baudouin d'Aumeries
Co-Programmazione e sviluppo : Marc-Olivier Méhu
Supporto tecnico e logistico : Manuel Goepfert
Aiuto per la traduzione : Arnaldo La Scala

Contatto : metmap@orbifly.com




FONTI E CREDITI :

   NOAA